Time;durP1;ratioP1;P1;durP2;ratioP2;P2;SDS_P1;SDS_P2;PMS_P1;PMS_P2;Temp;Humidity;BMP_temperature;BMP_pressure;BME280_temperature;BME280_humidity;BME280_pressure;Samples;Min_cycle;Max_cycle;Signal;HPM_P1;HPM_P2
2022/07/31 00:00:47;;;;;;;1.98;1.10;;;23.40;63.00;;;;;;5073066;28;20112;-63
2022/07/31 00:03:13;;;;;;;2.35;1.10;;;23.40;63.00;;;;;;5074254;28;20045;-63
2022/07/31 00:05:38;;;;;;;2.35;1.20;;;23.40;63.00;;;;;;5074099;28;20075;-63
2022/07/31 00:08:04;;;;;;;3.13;1.30;;;23.40;63.00;;;;;;5071704;28;20123;-63
2022/07/31 00:10:29;;;;;;;2.63;1.10;;;23.40;63.00;;;;;;5074051;28;20218;-63
2022/07/31 00:12:55;;;;;;;1.88;1.10;;;23.40;63.00;;;;;;5073398;28;20033;-63
2022/07/31 00:15:20;;;;;;;2.83;1.33;;;23.40;63.00;;;;;;5073292;28;20049;-63
2022/07/31 00:17:46;;;;;;;2.30;1.00;;;23.40;63.00;;;;;;5071936;28;20040;-63
2022/07/31 00:20:13;;;;;;;2.17;1.15;;;23.40;63.00;;;;;;5073891;28;20075;-63
2022/07/31 00:22:42;;;;;;;3.40;1.20;;;23.30;62.90;;;;;;5073326;28;20052;-63
2022/07/31 00:25:08;;;;;;;2.92;1.20;;;23.40;63.00;;;;;;5072584;28;20079;-63
2022/07/31 00:27:34;;;;;;;1.70;1.00;;;23.40;63.00;;;;;;5073392;28;20504;-63
2022/07/31 00:29:59;;;;;;;4.63;1.25;;;23.40;63.00;;;;;;5072906;28;20051;-63
2022/07/31 00:32:25;;;;;;;1.95;1.00;;;23.40;63.00;;;;;;5073800;28;20392;-63
2022/07/31 00:34:50;;;;;;;2.30;1.17;;;23.30;63.00;;;;;;5073408;28;20048;-63
2022/07/31 00:37:16;;;;;;;2.05;1.10;;;23.30;62.90;;;;;;5072824;28;20143;-63
2022/07/31 00:39:41;;;;;;;2.08;1.15;;;23.30;63.00;;;;;;5072339;28;20041;-63
2022/07/31 00:42:17;;;;;;;2.28;1.15;;;23.30;63.00;;;;;;5073041;28;20059;-63
2022/07/31 00:44:43;;;;;;;2.63;1.05;;;23.30;62.90;;;;;;5072653;28;20127;-63
2022/07/31 00:47:08;;;;;;;2.20;1.10;;;23.30;63.00;;;;;;5073203;28;20555;-63
2022/07/31 00:49:34;;;;;;;1.65;1.08;;;23.30;62.90;;;;;;5072310;28;20047;-63
2022/07/31 00:51:59;;;;;;;2.95;1.33;;;23.30;63.00;;;;;;5070802;28;20047;-63
2022/07/31 00:54:25;;;;;;;2.42;1.10;;;23.30;63.00;;;;;;5073534;28;20042;-63
2022/07/31 00:56:51;;;;;;;1.92;0.93;;;23.30;62.90;;;;;;5072003;28;20045;-62
2022/07/31 00:59:16;;;;;;;2.10;1.10;;;23.30;62.90;;;;;;5073406;28;20041;-63
2022/07/31 01:01:42;;;;;;;1.67;1.00;;;23.30;62.90;;;;;;5073061;28;20150;-63
2022/07/31 01:04:07;;;;;;;2.10;1.13;;;23.30;62.90;;;;;;5071191;28;20049;-63
2022/07/31 01:06:33;;;;;;;2.22;1.10;;;23.30;62.90;;;;;;5070740;28;20048;-63
2022/07/31 01:08:58;;;;;;;3.00;1.23;;;23.30;62.90;;;;;;5071537;28;20044;-63
2022/07/31 01:11:52;;;;;;;2.85;1.05;;;23.30;62.90;;;;;;5072379;28;20048;-63
2022/07/31 01:14:19;;;;;;;3.00;1.23;;;23.30;62.90;;;;;;5069568;28;20601;-63
2022/07/31 01:16:46;;;;;;;2.30;1.13;;;23.30;62.90;;;;;;5071565;28;20115;-63
2022/07/31 01:19:21;;;;;;;1.77;1.17;;;23.30;62.90;;;;;;5072021;28;20048;-63
2022/07/31 01:22:15;;;;;;;1.65;1.05;;;23.30;62.90;;;;;;5071247;28;20481;-62
2022/07/31 01:25:06;;;;;;;2.60;1.40;;;23.30;62.90;;;;;;5072891;28;20044;-63
2022/07/31 01:27:54;;;;;;;1.90;1.10;;;23.30;62.90;;;;;;5071667;28;20088;-63
2022/07/31 01:30:21;;;;;;;1.95;1.00;;;23.20;62.90;;;;;;5071841;28;20040;-63
2022/07/31 01:32:47;;;;;;;1.92;1.23;;;23.30;62.90;;;;;;5037555;28;20480;-63
2022/07/31 01:35:16;;;;;;;2.95;1.25;;;23.20;62.90;;;;;;5071490;28;20076;-63
2022/07/31 01:37:48;;;;;;;2.05;1.10;;;23.20;62.90;;;;;;5071404;28;20040;-63
2022/07/31 01:40:34;;;;;;;3.03;1.17;;;23.20;62.80;;;;;;5070794;28;20048;-63
2022/07/31 01:43:04;;;;;;;4.35;1.05;;;23.20;62.90;;;;;;5072618;28;20090;-63
2022/07/31 01:45:29;;;;;;;2.83;1.20;;;23.20;62.90;;;;;;5038644;28;20071;-62
2022/07/31 01:47:55;;;;;;;2.65;1.10;;;23.20;62.90;;;;;;5053609;28;20496;-63
2022/07/31 01:50:20;;;;;;;1.92;1.00;;;23.20;62.90;;;;;;5071011;28;20044;-63
2022/07/31 01:52:46;;;;;;;1.90;1.00;;;23.20;62.90;;;;;;5071337;28;20090;-63
2022/07/31 01:55:12;;;;;;;1.83;1.00;;;23.20;62.90;;;;;;5053649;28;20076;-63
2022/07/31 01:57:38;;;;;;;1.77;1.00;;;23.20;62.90;;;;;;5071275;28;20083;-63
2022/07/31 02:00:06;;;;;;;2.55;1.10;;;23.20;63.30;;;;;;5037487;28;20075;-63
2022/07/31 02:02:31;;;;;;;2.58;1.10;;;23.20;62.90;;;;;;5052081;28;20516;-63
2022/07/31 02:04:57;;;;;;;2.35;1.08;;;23.20;62.90;;;;;;5050289;28;20079;-63
2022/07/31 02:07:23;;;;;;;3.10;1.10;;;23.20;62.90;;;;;;5050168;28;20476;-63
2022/07/31 02:09:48;;;;;;;1.48;0.98;;;23.20;63.00;;;;;;5052033;28;20047;-63
2022/07/31 02:12:14;;;;;;;2.75;1.15;;;23.20;63.00;;;;;;5051168;28;20113;-62
2022/07/31 02:14:40;;;;;;;1.58;1.00;;;23.20;63.00;;;;;;5050409;28;20378;-63
2022/07/31 02:17:06;;;;;;;1.92;1.15;;;23.20;63.00;;;;;;5050658;28;20128;-62
2022/07/31 02:19:31;;;;;;;1.50;0.98;;;23.20;63.00;;;;;;5056200;28;20037;-62
2022/07/31 02:21:58;;;;;;;2.17;1.17;;;23.20;63.00;;;;;;5053935;28;20074;-62
2022/07/31 02:24:23;;;;;;;2.55;1.00;;;23.20;63.00;;;;;;5056241;28;20045;-63
2022/07/31 02:26:49;;;;;;;1.65;0.90;;;23.20;63.00;;;;;;5055461;28;20082;-63
2022/07/31 02:29:15;;;;;;;2.13;1.40;;;23.20;63.00;;;;;;5055557;28;20095;-63
2022/07/31 02:31:40;;;;;;;2.55;1.10;;;23.20;63.00;;;;;;5038434;28;20052;-62
2022/07/31 02:34:06;;;;;;;1.55;0.90;;;23.20;63.00;;;;;;5055556;28;20051;-63
2022/07/31 02:36:32;;;;;;;2.17;1.05;;;23.10;63.00;;;;;;5053972;28;20052;-62
2022/07/31 02:38:58;;;;;;;3.08;1.00;;;23.10;63.00;;;;;;5055494;28;20059;-62
2022/07/31 02:41:23;;;;;;;2.13;1.10;;;23.20;63.00;;;;;;5054868;28;20388;-62
2022/07/31 02:43:49;;;;;;;2.38;1.25;;;23.20;63.10;;;;;;5036951;28;20411;-62
2022/07/31 02:46:15;;;;;;;2.15;1.17;;;23.10;63.00;;;;;;5055936;28;20056;-62
2022/07/31 02:48:41;;;;;;;2.90;1.10;;;23.10;63.00;;;;;;5054560;28;20044;-63
2022/07/31 02:51:07;;;;;;;1.70;1.20;;;23.10;63.00;;;;;;5053512;28;20094;-63
2022/07/31 02:53:33;;;;;;;2.22;1.10;;;23.10;63.00;;;;;;5054427;28;20061;-63
2022/07/31 02:55:59;;;;;;;1.85;1.02;;;23.10;63.00;;;;;;5055508;28;20063;-63
2022/07/31 02:58:26;;;;;;;1.88;1.02;;;23.10;63.00;;;;;;5053505;28;20064;-63
2022/07/31 03:01:02;;;;;;;1.30;1.00;;;23.10;63.00;;;;;;5054997;28;20120;-63
2022/07/31 03:03:28;;;;;;;2.38;0.93;;;23.10;63.00;;;;;;5054897;28;20120;-63
2022/07/31 03:05:53;;;;;;;2.25;1.27;;;23.10;63.00;;;;;;5055157;28;20453;-63
2022/07/31 03:08:19;;;;;;;2.60;1.30;;;23.10;63.00;;;;;;5054345;28;20556;-63
2022/07/31 03:10:45;;;;;;;2.75;1.10;;;23.10;63.00;;;;;;5054408;28;20905;-63
2022/07/31 03:13:11;;;;;;;1.92;1.02;;;23.10;63.00;;;;;;5055122;28;20489;-63
2022/07/31 03:15:37;;;;;;;2.40;0.90;;;23.10;63.00;;;;;;5053974;28;20049;-63
2022/07/31 03:18:04;;;;;;;1.67;1.17;;;23.10;63.00;;;;;;5036091;28;20492;-63
2022/07/31 03:20:29;;;;;;;1.98;1.30;;;23.10;63.00;;;;;;5054121;28;20056;-63
2022/07/31 03:22:55;;;;;;;2.25;1.20;;;23.10;63.00;;;;;;5054945;28;20041;-63
2022/07/31 03:25:20;;;;;;;1.60;1.02;;;23.10;63.00;;;;;;5054395;28;20044;-62
2022/07/31 03:27:50;;;;;;;1.83;1.10;;;23.10;63.00;;;;;;5053105;28;20060;-62
2022/07/31 03:30:23;;;;;;;1.45;1.00;;;23.10;63.00;;;;;;5052477;28;20560;-63
2022/07/31 03:32:51;;;;;;;1.30;0.90;;;23.10;63.00;;;;;;5054011;28;20049;-63
2022/07/31 03:35:17;;;;;;;2.00;1.25;;;23.10;63.00;;;;;;5053967;28;20096;-63
2022/07/31 03:37:42;;;;;;;2.47;1.23;;;23.10;63.00;;;;;;5053193;28;20435;-63
2022/07/31 03:40:09;;;;;;;1.90;1.10;;;23.10;63.00;;;;;;5053882;28;20469;-62
2022/07/31 03:42:34;;;;;;;2.33;1.00;;;23.00;63.00;;;;;;5054632;28;20040;-63
2022/07/31 03:45:00;;;;;;;2.17;1.00;;;23.00;62.90;;;;;;5036252;28;20408;-62
2022/07/31 03:47:26;;;;;;;2.83;1.30;;;23.00;62.90;;;;;;5052572;28;20064;-63
2022/07/31 03:49:51;;;;;;;1.85;0.90;;;23.10;63.00;;;;;;5053218;28;20083;-63
2022/07/31 03:52:17;;;;;;;1.58;1.08;;;23.00;63.00;;;;;;5054300;28;20095;-63
2022/07/31 03:54:42;;;;;;;1.45;1.10;;;23.00;63.00;;;;;;5035510;28;20500;-64
2022/07/31 03:57:08;;;;;;;1.45;1.10;;;23.00;63.00;;;;;;5053176;28;20049;-63
2022/07/31 03:59:33;;;;;;;1.65;1.00;;;23.00;62.90;;;;;;5053179;28;20044;-63
2022/07/31 04:01:59;;;;;;;2.30;1.40;;;23.00;62.90;;;;;;5060406;28;20080;-63
2022/07/31 04:04:25;;;;;;;1.80;1.20;;;23.00;63.00;;;;;;5071310;28;20043;-62
2022/07/31 04:06:51;;;;;;;3.00;1.17;;;23.00;63.00;;;;;;5072649;28;20514;-61
2022/07/31 04:09:16;;;;;;;1.98;1.20;;;23.00;63.00;;;;;;5072801;28;20508;-61
2022/07/31 04:11:42;;;;;;;2.10;1.10;;;23.00;63.00;;;;;;5073859;28;20047;-62
2022/07/31 04:14:07;;;;;;;1.73;1.20;;;23.00;63.00;;;;;;5072140;28;20098;-62
2022/07/31 04:16:33;;;;;;;1.88;0.98;;;23.00;63.00;;;;;;5073799;28;20041;-61
2022/07/31 04:18:58;;;;;;;2.42;1.00;;;23.00;63.00;;;;;;5073624;28;20048;-61
2022/07/31 04:21:24;;;;;;;3.15;1.30;;;23.00;63.00;;;;;;5072909;28;20056;-61
2022/07/31 04:23:50;;;;;;;1.63;1.00;;;23.00;63.00;;;;;;5073661;28;20364;-62
2022/07/31 04:26:15;;;;;;;1.92;1.10;;;23.00;63.00;;;;;;5073969;28;20385;-62
2022/07/31 04:28:41;;;;;;;2.15;0.90;;;23.00;63.00;;;;;;5054986;28;20457;-61
2022/07/31 04:31:06;;;;;;;1.58;1.15;;;23.00;63.00;;;;;;5073348;28;20401;-62
2022/07/31 04:33:32;;;;;;;1.45;1.10;;;23.00;63.00;;;;;;5073795;28;20503;-62
2022/07/31 04:35:57;;;;;;;3.90;1.00;;;23.00;63.00;;;;;;5072663;28;20442;-62
2022/07/31 04:38:23;;;;;;;1.67;0.90;;;23.00;63.00;;;;;;5073550;28;20423;-61
2022/07/31 04:40:48;;;;;;;1.20;1.00;;;23.00;63.00;;;;;;5073046;28;20369;-61
2022/07/31 04:43:15;;;;;;;1.30;1.02;;;23.00;63.00;;;;;;5072546;28;20538;-62
2022/07/31 04:45:41;;;;;;;1.33;0.80;;;23.00;63.00;;;;;;5073616;28;20503;-61
2022/07/31 04:48:07;;;;;;;1.83;1.00;;;23.00;62.90;;;;;;5073235;28;20043;-62
2022/07/31 04:50:32;;;;;;;2.70;1.20;;;23.00;62.90;;;;;;5071279;28;20052;-61
2022/07/31 04:52:58;;;;;;;1.75;1.00;;;23.00;62.90;;;;;;5073270;28;20598;-62
2022/07/31 04:55:24;;;;;;;1.60;1.00;;;23.00;62.90;;;;;;5073382;28;20399;-61
2022/07/31 04:57:49;;;;;;;1.80;1.15;;;23.00;62.90;;;;;;5072011;28;20060;-62
2022/07/31 05:00:15;;;;;;;1.67;1.10;;;23.00;62.90;;;;;;5073116;28;20507;-62
2022/07/31 05:02:40;;;;;;;2.15;1.17;;;23.00;62.90;;;;;;5073138;28;20044;-62
2022/07/31 05:05:06;;;;;;;1.95;0.98;;;23.00;62.90;;;;;;5070618;28;20072;-61
2022/07/31 05:07:33;;;;;;;1.83;1.27;;;22.90;62.90;;;;;;5072959;28;20047;-61
2022/07/31 05:09:59;;;;;;;2.35;1.27;;;23.00;62.90;;;;;;5072455;28;20055;-61
2022/07/31 05:12:24;;;;;;;2.10;1.00;;;23.00;62.90;;;;;;5072842;28;20044;-62
2022/07/31 05:14:50;;;;;;;1.83;1.10;;;23.00;62.90;;;;;;5072923;28;20042;-62
2022/07/31 05:17:16;;;;;;;1.63;1.00;;;23.00;62.90;;;;;;5072155;28;20084;-62
2022/07/31 05:19:41;;;;;;;3.08;1.30;;;23.00;62.90;;;;;;5073003;28;20044;-62
2022/07/31 05:22:07;;;;;;;2.50;1.23;;;22.90;62.80;;;;;;5072717;28;20044;-62
2022/07/31 05:24:32;;;;;;;2.05;1.20;;;22.90;62.80;;;;;;5070671;28;20047;-62
2022/07/31 05:26:58;;;;;;;1.75;1.00;;;22.90;62.80;;;;;;5072433;28;20040;-61
2022/07/31 05:29:23;;;;;;;2.42;1.20;;;22.90;62.80;;;;;;5072995;28;20435;-61
2022/07/31 05:31:50;;;;;;;2.72;1.20;;;22.90;62.80;;;;;;5071876;28;20044;-61
2022/07/31 05:34:16;;;;;;;2.17;1.30;;;22.90;62.80;;;;;;5072858;28;20040;-61
2022/07/31 05:36:41;;;;;;;1.98;1.30;;;22.90;62.80;;;;;;5072793;28;20131;-61
2022/07/31 05:39:08;;;;;;;2.42;1.17;;;22.90;62.80;;;;;;5071709;28;20148;-61
2022/07/31 05:41:34;;;;;;;1.45;0.95;;;22.90;62.80;;;;;;5072581;28;20040;-62
2022/07/31 05:44:00;;;;;;;1.63;1.05;;;22.90;62.80;;;;;;5072582;28;20163;-62
2022/07/31 05:46:26;;;;;;;1.42;1.10;;;22.90;62.80;;;;;;5072082;28;20108;-61
2022/07/31 05:48:52;;;;;;;1.90;1.17;;;22.90;62.80;;;;;;5072386;28;20115;-62
2022/07/31 05:51:17;;;;;;;2.17;1.10;;;22.90;62.80;;;;;;5072556;28;20072;-62
2022/07/31 05:53:43;;;;;;;2.05;1.27;;;22.90;62.80;;;;;;5070927;28;20070;-62
2022/07/31 05:56:08;;;;;;;1.23;1.08;;;22.90;62.80;;;;;;5072097;28;20036;-62
2022/07/31 05:58:34;;;;;;;2.53;1.10;;;22.90;62.80;;;;;;5072602;28;20048;-62
2022/07/31 06:01:00;;;;;;;1.80;1.10;;;22.90;62.80;;;;;;5071485;28;20040;-62
2022/07/31 06:03:28;;;;;;;2.17;1.20;;;22.90;62.70;;;;;;5072505;28;20040;-62
2022/07/31 06:05:55;;;;;;;1.98;1.17;;;22.90;62.70;;;;;;5070034;28;20045;-62
2022/07/31 06:08:20;;;;;;;3.30;1.10;;;23.00;62.80;;;;;;5070253;28;20047;-62
2022/07/31 06:10:46;;;;;;;4.55;1.98;;;23.00;62.90;;;;;;5071717;28;20033;-63
2022/07/31 06:13:12;;;;;;;2.53;1.30;;;23.00;62.90;;;;;;5072275;28;20499;-62
2022/07/31 06:15:37;;;;;;;2.60;1.40;;;23.00;62.90;;;;;;5071164;28;20075;-61
2022/07/31 06:18:03;;;;;;;4.40;1.48;;;23.00;62.90;;;;;;5072114;28;20511;-63
2022/07/31 06:20:29;;;;;;;2.72;1.33;;;23.00;63.10;;;;;;5071616;28;20047;-62
2022/07/31 06:22:54;;;;;;;2.42;1.48;;;23.00;63.20;;;;;;5070529;28;20044;-62
2022/07/31 06:25:20;;;;;;;2.08;1.30;;;23.00;63.20;;;;;;5072230;28;20041;-62
2022/07/31 06:27:45;;;;;;;3.15;1.40;;;23.00;63.30;;;;;;5070864;28;20060;-63
2022/07/31 06:30:12;;;;;;;3.42;1.50;;;23.00;63.30;;;;;;5072264;28;20044;-62
2022/07/31 06:32:37;;;;;;;2.30;1.30;;;23.10;63.40;;;;;;5071587;28;20093;-62
2022/07/31 06:35:03;;;;;;;4.22;1.30;;;23.10;63.50;;;;;;5070512;28;20049;-63
2022/07/31 06:37:29;;;;;;;5.43;1.50;;;23.10;63.50;;;;;;5072125;28;20528;-63
2022/07/31 06:39:54;;;;;;;2.05;1.20;;;23.10;63.60;;;;;;5070119;28;20037;-63
2022/07/31 06:42:21;;;;;;;3.75;1.10;;;23.10;63.60;;;;;;5071228;28;20067;-63
2022/07/31 06:44:47;;;;;;;3.90;1.13;;;23.10;63.70;;;;;;5071783;28;20055;-63
2022/07/31 06:47:12;;;;;;;2.58;1.23;;;23.10;63.80;;;;;;5072033;28;20393;-62
2022/07/31 06:49:39;;;;;;;1.85;1.13;;;23.10;63.90;;;;;;5070682;28;20041;-62
2022/07/31 06:52:05;;;;;;;2.78;1.30;;;23.20;63.90;;;;;;5071327;28;20037;-63
2022/07/31 06:54:30;;;;;;;5.05;1.30;;;23.10;63.90;;;;;;5070242;28;20044;-63
2022/07/31 06:56:56;;;;;;;2.35;1.20;;;23.20;64.00;;;;;;5070512;28;20055;-62
2022/07/31 06:59:21;;;;;;;2.13;1.40;;;23.20;64.10;;;;;;5070059;28;20071;-63
2022/07/31 07:01:47;;;;;;;2.17;1.40;;;23.20;64.10;;;;;;5071196;28;20087;-62
2022/07/31 07:04:12;;;;;;;2.60;1.27;;;23.20;64.10;;;;;;5070846;28;20128;-62
2022/07/31 07:06:38;;;;;;;2.75;1.45;;;23.20;64.10;;;;;;5075547;28;20044;-63
2022/07/31 07:09:04;;;;;;;3.75;1.60;;;23.20;64.10;;;;;;5074091;28;20075;-61
2022/07/31 07:11:29;;;;;;;2.33;1.50;;;23.20;64.10;;;;;;5074247;28;20044;-63
2022/07/31 07:13:55;;;;;;;4.05;1.50;;;23.20;64.10;;;;;;5074958;28;20044;-63
2022/07/31 07:16:20;;;;;;;1.98;1.27;;;23.20;64.00;;;;;;5075625;28;20082;-63
2022/07/31 07:18:46;;;;;;;2.63;1.20;;;23.20;64.00;;;;;;5074150;28;20040;-63
2022/07/31 07:21:11;;;;;;;3.63;1.40;;;23.20;64.00;;;;;;5075099;28;20093;-64
2022/07/31 07:23:37;;;;;;;2.72;1.30;;;23.20;64.60;;;;;;5074120;28;20369;-63
2022/07/31 07:26:03;;;;;;;2.03;1.13;;;23.20;64.10;;;;;;5074217;28;20127;-63
2022/07/31 07:28:29;;;;;;;3.05;1.45;;;23.30;64.20;;;;;;5074709;28;20068;-63
2022/07/31 07:30:54;;;;;;;3.35;1.40;;;23.30;64.20;;;;;;5073755;28;20072;-63
2022/07/31 07:33:20;;;;;;;2.55;1.20;;;23.30;64.20;;;;;;5074860;28;20369;-63
2022/07/31 07:35:46;;;;;;;1.98;1.55;;;23.30;64.20;;;;;;5074542;28;20097;-63
2022/07/31 07:38:11;;;;;;;2.90;1.48;;;23.30;64.10;;;;;;5073671;28;20517;-63
2022/07/31 07:40:37;;;;;;;3.47;1.33;;;23.30;64.10;;;;;;5074831;28;20040;-63
2022/07/31 07:43:02;;;;;;;2.78;1.48;;;23.30;64.00;;;;;;5074507;28;20048;-63
2022/07/31 07:45:28;;;;;;;2.35;1.40;;;23.30;63.90;;;;;;5073659;28;20133;-63
2022/07/31 07:47:53;;;;;;;3.42;1.27;;;23.30;63.90;;;;;;5074503;28;20044;-63
2022/07/31 07:50:19;;;;;;;1.83;1.27;;;23.30;63.90;;;;;;5074775;28;20080;-63
2022/07/31 07:52:45;;;;;;;2.33;1.20;;;23.30;63.90;;;;;;5073346;28;20048;-63
2022/07/31 07:55:11;;;;;;;2.20;1.13;;;23.30;63.80;;;;;;5074497;28;20037;-61
2022/07/31 07:57:37;;;;;;;3.40;1.23;;;23.30;63.80;;;;;;5074631;28;20130;-62
2022/07/31 08:00:07;;;;;;;3.00;1.30;;;23.30;63.80;;;;;;5073379;28;20504;-63
2022/07/31 08:02:33;;;;;;;2.40;1.13;;;23.30;63.80;;;;;;5074259;28;20055;-63
2022/07/31 08:04:59;;;;;;;2.03;1.35;;;23.30;63.90;;;;;;5073944;28;20048;-63
2022/07/31 08:07:32;;;;;;;3.28;1.33;;;23.30;63.80;;;;;;5073522;28;20049;-62
2022/07/31 08:09:57;;;;;;;2.75;1.40;;;23.20;63.80;;;;;;5073659;28;20484;-63
2022/07/31 08:12:23;;;;;;;5.18;1.33;;;23.30;63.80;;;;;;5073901;28;20032;-62
2022/07/31 08:14:49;;;;;;;2.25;1.30;;;23.30;63.80;;;;;;5073051;28;20063;-62
2022/07/31 08:17:14;;;;;;;4.55;1.50;;;23.30;63.90;;;;;;5073675;28;20082;-64
2022/07/31 08:19:40;;;;;;;4.00;1.45;;;23.30;64.00;;;;;;5077093;28;20058;-63
2022/07/31 08:22:06;;;;;;;5.63;1.38;;;23.30;64.00;;;;;;5085095;28;20434;-62
2022/07/31 08:24:32;;;;;;;2.63;1.40;;;23.40;64.10;;;;;;5073691;28;20128;-63
2022/07/31 08:29:41;;;;;;;2.30;1.52;;;23.40;64.20;;;;;;5073213;28;20044;-63
2022/07/31 08:32:07;;;;;;;2.80;1.50;;;23.40;64.20;;;;;;5071792;28;20408;-63
2022/07/31 08:34:32;;;;;;;3.47;1.60;;;23.40;64.10;;;;;;5072746;28;20048;-64
2022/07/31 08:36:58;;;;;;;4.82;1.60;;;23.40;64.10;;;;;;5071974;28;20044;-64
2022/07/31 08:39:24;;;;;;;1.75;1.25;;;23.40;64.10;;;;;;5073511;28;20044;-64
2022/07/31 08:41:49;;;;;;;3.42;1.63;;;23.40;64.10;;;;;;5072418;28;20075;-64
2022/07/31 08:44:15;;;;;;;2.67;1.40;;;23.40;64.10;;;;;;5072356;28;20047;-64
2022/07/31 08:46:40;;;;;;;2.97;1.50;;;23.40;64.10;;;;;;5073402;28;20040;-62
2022/07/31 08:49:08;;;;;;;5.35;1.67;;;23.40;64.80;;;;;;5070836;28;20040;-63
2022/07/31 08:51:35;;;;;;;3.10;1.33;;;23.40;64.10;;;;;;5073501;28;20044;-64
2022/07/31 08:54:02;;;;;;;2.78;1.73;;;23.40;64.10;;;;;;5072934;28;20090;-63
2022/07/31 08:56:28;;;;;;;2.97;1.40;;;23.40;64.10;;;;;;5054781;28;20098;-63
2022/07/31 08:58:56;;;;;;;4.32;1.60;;;23.40;64.10;;;;;;5071401;28;20098;-63
2022/07/31 09:01:22;;;;;;;4.47;1.50;;;23.40;64.10;;;;;;5073028;28;20044;-64
2022/07/31 09:03:47;;;;;;;3.10;1.50;;;23.40;64.10;;;;;;5071805;28;20044;-63
2022/07/31 09:06:13;;;;;;;3.88;1.60;;;23.40;64.10;;;;;;5073233;28;20048;-64
2022/07/31 09:08:39;;;;;;;1.92;1.33;;;23.40;64.10;;;;;;5073032;28;20036;-66
2022/07/31 09:11:12;;;;;;;3.53;1.42;;;23.50;64.10;;;;;;5072150;28;20602;-65
2022/07/31 09:13:37;;;;;;;2.97;1.65;;;23.40;64.00;;;;;;5072954;28;20530;-65
2022/07/31 09:16:03;;;;;;;3.78;1.77;;;23.40;64.60;;;;;;5071229;28;20044;-65
2022/07/31 09:18:29;;;;;;;4.75;1.67;;;23.40;63.90;;;;;;5071842;28;20051;-65
2022/07/31 09:20:56;;;;;;;3.33;1.63;;;23.40;63.70;;;;;;5071309;28;20036;-65
2022/07/31 09:23:22;;;;;;;3.58;1.85;;;23.40;63.70;;;;;;5072183;28;20102;-65
2022/07/31 09:25:55;;;;;;;5.10;2.00;;;23.40;63.70;;;;;;5072610;28;20049;-65
2022/07/31 09:28:29;;;;;;;4.53;2.10;;;23.40;63.70;;;;;;5070249;28;20049;-65
2022/07/31 09:30:55;;;;;;;5.82;2.33;;;23.40;63.60;;;;;;5070699;28;20479;-65
2022/07/31 09:33:20;;;;;;;4.50;2.25;;;23.40;63.60;;;;;;5072741;28;20051;-64
2022/07/31 09:35:50;;;;;;;6.57;2.60;;;23.40;64.30;;;;;;5072542;28;20037;-63
2022/07/31 09:38:16;;;;;;;6.97;2.78;;;23.40;63.80;;;;;;5070633;28;20048;-64
2022/07/31 09:40:44;;;;;;;7.82;3.10;;;23.40;64.00;;;;;;5071149;28;20047;-63
2022/07/31 09:43:18;;;;;;;5.63;2.33;;;23.40;64.10;;;;;;5071252;28;20050;-63
2022/07/31 09:45:45;;;;;;;6.65;2.55;;;23.40;64.20;;;;;;5070346;28;20080;-63
2022/07/31 09:48:13;;;;;;;4.72;2.05;;;23.40;64.30;;;;;;5072647;28;20037;-62
2022/07/31 09:51:00;;;;;;;6.38;2.90;;;23.40;64.40;;;;;;5072571;28;20036;-63
2022/07/31 09:53:26;;;;;;;7.28;2.58;;;23.40;64.40;;;;;;5071433;28;20036;-63
2022/07/31 09:55:55;;;;;;;5.68;2.58;;;23.40;64.50;;;;;;5071812;28;20491;-63
2022/07/31 09:58:21;;;;;;;5.63;2.40;;;23.40;64.50;;;;;;5071987;28;20055;-63
2022/07/31 10:00:48;;;;;;;4.32;2.33;;;23.40;64.50;;;;;;5071586;28;20504;-63
2022/07/31 10:03:16;;;;;;;5.00;2.55;;;23.40;64.60;;;;;;5071085;28;20053;-63
2022/07/31 10:05:41;;;;;;;4.57;2.22;;;23.40;64.60;;;;;;5070689;28;20143;-64
2022/07/31 10:08:07;;;;;;;5.68;2.60;;;23.40;64.50;;;;;;5070977;28;20127;-63
2022/07/31 10:10:32;;;;;;;7.50;2.78;;;23.40;64.50;;;;;;5070953;28;20111;-64
2022/07/31 10:13:00;;;;;;;5.07;2.20;;;23.40;65.20;;;;;;5070024;28;20067;-62
2022/07/31 10:15:26;;;;;;;6.55;2.80;;;23.40;64.60;;;;;;5071732;28;20468;-64
2022/07/31 10:17:51;;;;;;;5.03;2.08;;;23.40;64.70;;;;;;5070100;28;20048;-63
2022/07/31 10:20:21;;;;;;;5.63;2.38;;;23.40;64.70;;;;;;5070818;28;20041;-63
2022/07/31 10:23:00;;;;;;;4.72;2.35;;;23.40;64.80;;;;;;5053302;28;20068;-63
2022/07/31 10:25:27;;;;;;;5.18;2.45;;;23.40;64.90;;;;;;5068497;28;20419;-63
2022/07/31 10:27:53;;;;;;;5.30;2.38;;;23.40;65.00;;;;;;5070451;28;20075;-63
2022/07/31 10:30:19;;;;;;;4.30;2.10;;;23.40;65.00;;;;;;5071645;28;20429;-62
2022/07/31 10:32:45;;;;;;;7.47;2.85;;;23.40;65.10;;;;;;5071410;28;20036;-62
2022/07/31 10:35:10;;;;;;;4.25;2.28;;;23.50;65.20;;;;;;5069954;28;20037;-62
2022/07/31 10:37:49;;;;;;;3.67;2.42;;;23.50;65.20;;;;;;5070893;28;20045;-62
2022/07/31 10:40:42;;;;;;;6.68;2.47;;;23.50;65.20;;;;;;5058170;28;20047;-62
2022/07/31 10:43:27;;;;;;;4.78;2.33;;;23.50;65.20;;;;;;5074721;28;20089;-62
2022/07/31 10:45:54;;;;;;;4.82;2.60;;;23.50;65.30;;;;;;5074198;28;20097;-62
2022/07/31 10:48:20;;;;;;;6.03;2.42;;;23.50;65.30;;;;;;5075083;28;20052;-62
2022/07/31 10:50:46;;;;;;;5.43;2.22;;;23.50;65.30;;;;;;5075422;28;20052;-63
2022/07/31 10:53:14;;;;;;;5.95;2.45;;;23.60;65.40;;;;;;5075855;28;20044;-63
2022/07/31 10:55:39;;;;;;;5.35;2.17;;;23.60;65.40;;;;;;5074673;28;20052;-63
2022/07/31 10:58:06;;;;;;;5.65;2.40;;;23.60;65.30;;;;;;5075205;28;20404;-63
2022/07/31 11:00:32;;;;;;;4.10;2.50;;;23.60;65.40;;;;;;5075234;28;20446;-63
2022/07/31 11:02:57;;;;;;;5.25;2.40;;;23.60;65.40;;;;;;5074514;28;20051;-63
2022/07/31 11:05:26;;;;;;;5.78;2.80;;;23.60;65.50;;;;;;5074700;28;20116;-63
2022/07/31 11:08:03;;;;;;;5.20;2.80;;;23.60;65.60;;;;;;5075376;28;20044;-64
2022/07/31 11:10:28;;;;;;;3.25;2.38;;;23.60;65.70;;;;;;5074547;28;20093;-63
2022/07/31 11:13:03;;;;;;;5.30;2.92;;;23.60;65.70;;;;;;5075154;28;20044;-63
2022/07/31 11:15:29;;;;;;;4.63;2.30;;;23.60;65.70;;;;;;5075237;28;20076;-64
2022/07/31 11:17:55;;;;;;;4.90;2.60;;;23.60;65.60;;;;;;5074268;28;20110;-63
2022/07/31 11:20:28;;;;;;;6.95;2.33;;;23.60;65.50;;;;;;5074590;28;20052;-63
2022/07/31 11:22:58;;;;;;;4.70;2.17;;;23.60;65.60;;;;;;5073266;28;20048;-63
2022/07/31 11:25:28;;;;;;;4.20;2.10;;;23.60;65.70;;;;;;5067389;28;20094;-62
2022/07/31 11:27:54;;;;;;;3.85;2.28;;;23.60;65.80;;;;;;5059581;28;20048;-63
2022/07/31 11:30:20;;;;;;;5.72;2.83;;;23.60;65.80;;;;;;5053724;28;20041;-63
2022/07/31 11:32:52;;;;;;;4.00;2.72;;;23.60;65.90;;;;;;5056431;28;20048;-63
2022/07/31 11:35:28;;;;;;;4.90;2.50;;;23.60;65.90;;;;;;5064726;28;20040;-63
2022/07/31 11:37:54;;;;;;;6.63;2.40;;;23.60;66.60;;;;;;5071793;28;20060;-64
2022/07/31 11:40:20;;;;;;;5.20;2.55;;;23.60;66.10;;;;;;5073194;28;20045;-64
2022/07/31 11:42:46;;;;;;;5.38;2.60;;;23.60;66.70;;;;;;5072670;28;20102;-64
2022/07/31 11:45:13;;;;;;;5.38;2.30;;;23.60;66.20;;;;;;5073444;28;20036;-64
2022/07/31 11:47:46;;;;;;;5.95;2.40;;;23.60;66.20;;;;;;5073931;28;20585;-64
2022/07/31 11:50:12;;;;;;;4.88;2.45;;;23.60;66.20;;;;;;5073528;28;20048;-64
2022/07/31 11:52:42;;;;;;;4.15;2.65;;;23.60;66.20;;;;;;5072248;28;20049;-64
2022/07/31 11:55:16;;;;;;;4.22;2.28;;;23.60;66.20;;;;;;5073131;28;20042;-64
2022/07/31 11:57:43;;;;;;;4.93;2.50;;;23.60;66.20;;;;;;5070993;28;20052;-64
2022/07/31 12:00:13;;;;;;;3.92;2.45;;;23.60;66.20;;;;;;5073475;28;20036;-64
2022/07/31 12:02:43;;;;;;;4.75;2.58;;;23.60;66.20;;;;;;5071751;28;20037;-64
2022/07/31 12:05:12;;;;;;;5.50;2.95;;;23.60;66.20;;;;;;5073074;28;20468;-64
2022/07/31 12:07:41;;;;;;;5.85;2.63;;;23.60;66.20;;;;;;5070468;28;20048;-64
2022/07/31 12:10:11;;;;;;;6.78;2.53;;;23.60;66.30;;;;;;5071779;28;20045;-64
2022/07/31 12:12:41;;;;;;;4.40;2.72;;;23.60;66.40;;;;;;5069232;28;20044;-63
2022/07/31 12:15:17;;;;;;;4.82;2.95;;;23.60;66.40;;;;;;5047928;28;20045;-64
2022/07/31 12:17:43;;;;;;;5.07;2.47;;;23.60;66.40;;;;;;5062814;28;20146;-63
2022/07/31 12:20:09;;;;;;;4.68;2.30;;;23.50;66.40;;;;;;5072452;28;20051;-64
2022/07/31 12:22:35;;;;;;;6.32;2.30;;;23.60;66.50;;;;;;5073427;28;20076;-64
2022/07/31 12:25:00;;;;;;;4.22;2.88;;;23.50;66.50;;;;;;5072009;28;20449;-64
2022/07/31 12:27:26;;;;;;;4.68;2.67;;;23.50;66.60;;;;;;5072595;28;20106;-64
2022/07/31 12:29:52;;;;;;;4.43;2.50;;;23.50;66.60;;;;;;5072696;28;20047;-64
2022/07/31 12:32:24;;;;;;;5.95;2.50;;;23.50;66.60;;;;;;5073342;28;20032;-64
2022/07/31 12:34:59;;;;;;;6.05;2.72;;;23.50;66.70;;;;;;5071458;28;20052;-63
2022/07/31 12:37:24;;;;;;;6.13;3.00;;;23.50;66.80;;;;;;5070840;28;20488;-63
2022/07/31 12:39:53;;;;;;;5.90;2.90;;;23.50;66.80;;;;;;5071316;28;20064;-64
2022/07/31 12:42:23;;;;;;;4.35;2.28;;;23.50;66.80;;;;;;5072388;28;20044;-64
2022/07/31 12:44:49;;;;;;;4.38;2.70;;;23.50;66.90;;;;;;5072772;28;20033;-64
2022/07/31 12:47:22;;;;;;;4.35;2.10;;;23.50;66.90;;;;;;5077695;28;20115;-64
2022/07/31 12:49:47;;;;;;;5.40;3.13;;;23.50;67.00;;;;;;5093113;28;20073;-64